createdAt,value
2022-09-28T00:01:08.665Z,0.10
2022-09-28T00:03:36.485Z,0.10
2022-09-28T00:06:06.518Z,0.10
2022-09-28T00:08:35.668Z,0.10
2022-09-28T00:11:05.072Z,0.10
2022-09-28T00:13:33.473Z,0.00
2022-09-28T00:16:03.309Z,0.40
2022-09-28T00:18:32.548Z,0.10
2022-09-28T00:21:05.596Z,0.00
2022-09-28T00:23:35.042Z,0.10
2022-09-28T00:26:03.806Z,0.00
2022-09-28T00:28:32.007Z,0.00
2022-09-28T00:31:00.310Z,0.00
2022-09-28T00:33:28.207Z,0.00
2022-09-28T00:35:58.557Z,0.05
2022-09-28T00:38:30.254Z,0.10
2022-09-28T00:40:59.599Z,0.05
2022-09-28T00:43:27.994Z,0.20
2022-09-28T00:46:00.581Z,0.20
2022-09-28T00:48:32.495Z,0.10
2022-09-28T00:51:05.424Z,0.03
2022-09-28T00:53:36.463Z,0.10
2022-09-28T00:56:07.385Z,0.10
2022-09-28T00:58:39.997Z,0.10
2022-09-28T01:01:08.405Z,0.25
2022-09-28T01:03:36.362Z,0.10
2022-09-28T01:06:07.338Z,0.05
2022-09-28T01:08:36.447Z,0.10
2022-09-28T01:11:04.558Z,0.20
2022-09-28T01:13:33.617Z,0.08
2022-09-28T01:16:08.958Z,0.08
2022-09-28T01:18:48.570Z,0.10
2022-09-28T01:21:20.598Z,0.20
2022-09-28T01:24:22.226Z,0.10
2022-09-28T01:29:34.334Z,0.08
2022-09-28T01:32:13.662Z,0.10
2022-09-28T01:34:47.047Z,0.10
2022-09-28T01:37:20.420Z,0.00
2022-09-28T01:39:52.498Z,0.08
2022-09-28T01:42:25.583Z,0.13
2022-09-28T01:44:55.368Z,0.20
2022-09-28T01:47:27.262Z,0.10
2022-09-28T01:50:01.110Z,0.00
2022-09-28T01:52:35.174Z,0.10
2022-09-28T01:55:10.794Z,0.10
2022-09-28T01:57:43.919Z,0.00
2022-09-28T02:00:15.751Z,0.08
2022-09-28T02:02:49.405Z,0.17
2022-09-28T02:05:21.100Z,0.20
2022-09-28T02:07:56.122Z,0.10
2022-09-28T02:10:26.211Z,0.10
2022-09-28T02:12:59.892Z,0.10
2022-09-28T02:15:34.603Z,0.30
2022-09-28T02:18:02.733Z,0.10
2022-09-28T02:20:31.838Z,0.15
2022-09-28T02:23:02.951Z,0.13
2022-09-28T02:25:35.910Z,0.10
2022-09-28T02:28:06.631Z,0.15
2022-09-28T02:30:38.252Z,0.20
2022-09-28T02:33:12.682Z,0.40
2022-09-28T02:35:42.401Z,0.28
2022-09-28T02:38:11.856Z,0.03
2022-09-28T02:40:40.311Z,0.10
2022-09-28T02:43:17.842Z,0.13
2022-09-28T02:46:05.634Z,0.10
2022-09-28T02:49:04.874Z,0.25
2022-09-28T02:51:45.621Z,0.10
2022-09-28T02:54:37.222Z,0.10
2022-09-28T02:57:13.998Z,0.05
2022-09-28T02:59:50.427Z,0.10
2022-09-28T03:02:27.298Z,0.10
2022-09-28T03:05:20.861Z,0.10
2022-09-28T03:07:58.018Z,0.10
2022-09-28T03:10:34.650Z,0.10
2022-09-28T03:13:04.375Z,0.10
2022-09-28T03:15:35.324Z,0.10
2022-09-28T03:18:03.720Z,0.10
2022-09-28T03:20:33.420Z,0.10
2022-09-28T03:23:23.219Z,0.20
2022-09-28T03:25:49.498Z,0.17
2022-09-28T03:28:17.328Z,0.20
2022-09-28T03:30:46.482Z,0.15
2022-09-28T03:33:14.316Z,0.20
2022-09-28T03:35:43.060Z,0.20
2022-09-28T03:38:10.838Z,0.10
2022-09-28T03:40:38.650Z,0.20
2022-09-28T03:43:06.458Z,0.10
2022-09-28T03:45:34.313Z,0.10
2022-09-28T03:48:03.550Z,0.20
2022-09-28T03:50:31.349Z,0.10
2022-09-28T03:53:04.292Z,0.22
2022-09-28T03:55:32.091Z,0.20
2022-09-28T03:57:59.861Z,0.10
2022-09-28T04:00:27.863Z,0.00
2022-09-28T04:02:55.679Z,0.00
2022-09-28T04:05:24.952Z,0.10
2022-09-28T04:07:56.053Z,0.20
2022-09-28T04:10:23.795Z,0.05
2022-09-28T04:12:54.907Z,0.05
2022-09-28T04:15:22.714Z,0.10
2022-09-28T04:17:50.575Z,0.30
2022-09-28T04:20:18.515Z,0.17
2022-09-28T04:22:47.662Z,0.10
2022-09-28T04:25:15.547Z,0.10
2022-09-28T04:28:01.184Z,0.25
2022-09-28T04:30:29.071Z,0.50
2022-09-28T04:32:56.887Z,0.20
2022-09-28T04:35:24.713Z,0.20
2022-09-28T04:37:53.885Z,0.20
2022-09-28T04:40:21.745Z,0.10
2022-09-28T04:42:54.886Z,0.20
2022-09-28T04:45:23.385Z,0.15
2022-09-28T04:47:51.165Z,0.05
2022-09-28T04:50:19.046Z,0.20
2022-09-28T04:52:47.058Z,0.10
2022-09-28T04:55:16.868Z,0.10
2022-09-28T04:57:44.708Z,0.30
2022-09-28T05:00:13.806Z,0.20
2022-09-28T05:02:41.725Z,0.20
2022-09-28T05:05:09.976Z,0.20
2022-09-28T05:07:37.845Z,0.20
2022-09-28T05:10:06.383Z,0.20
2022-09-28T05:12:35.581Z,0.10
2022-09-28T05:15:03.410Z,0.10
2022-09-28T05:17:31.693Z,0.20
2022-09-28T05:20:00.577Z,0.30
2022-09-28T05:22:28.520Z,0.10
2022-09-28T05:24:58.181Z,0.28
2022-09-28T05:27:25.986Z,0.20
2022-09-28T05:29:55.407Z,0.20
2022-09-28T05:32:23.367Z,0.30
2022-09-28T05:34:51.161Z,0.20
2022-09-28T05:37:19.073Z,0.15
2022-09-28T05:39:46.930Z,0.45
2022-09-28T05:42:14.705Z,0.22
2022-09-28T05:44:42.496Z,0.10
2022-09-28T05:47:11.623Z,0.22
2022-09-28T05:49:39.450Z,0.15
2022-09-28T05:52:07.214Z,0.10
2022-09-28T05:54:35.154Z,0.22
2022-09-28T05:57:02.970Z,0.30
2022-09-28T05:59:30.842Z,0.13
2022-09-28T06:01:58.630Z,0.40
2022-09-28T06:04:27.845Z,0.20
2022-09-28T06:06:55.703Z,0.38
2022-09-28T06:09:26.076Z,0.20
2022-09-28T06:11:54.174Z,0.30
2022-09-28T06:14:22.211Z,0.40
2022-09-28T06:16:50.291Z,0.40
2022-09-28T06:19:18.397Z,0.50
2022-09-28T06:21:48.548Z,0.30
2022-09-28T06:24:16.783Z,0.30
2022-09-28T06:26:44.836Z,0.32
2022-09-28T06:29:19.237Z,0.30
2022-09-28T06:31:47.543Z,0.50
2022-09-28T06:34:15.728Z,0.30
2022-09-28T06:36:43.624Z,0.38
2022-09-28T06:39:12.825Z,0.50
2022-09-28T06:41:40.899Z,0.40
2022-09-28T06:44:08.863Z,0.40
2022-09-28T06:46:38.064Z,0.50
2022-09-28T06:49:06.178Z,0.50
2022-09-28T06:51:34.102Z,0.40
2022-09-28T06:54:01.859Z,0.28
2022-09-28T06:56:33.072Z,0.30
2022-09-28T06:59:01.065Z,0.60
2022-09-28T07:01:28.982Z,0.40
2022-09-28T07:03:57.748Z,0.28
2022-09-28T07:06:26.697Z,0.25
2022-09-28T07:09:02.803Z,0.20
2022-09-28T07:11:44.674Z,0.20
2022-09-28T07:14:23.682Z,0.20
2022-09-28T07:17:12.677Z,0.50
2022-09-28T07:19:41.720Z,0.63
2022-09-28T07:22:09.540Z,0.50
2022-09-28T07:24:37.403Z,0.52
2022-09-28T07:27:06.547Z,0.45
2022-09-28T07:29:34.319Z,0.35
2022-09-28T07:32:02.756Z,0.32
2022-09-28T07:34:30.586Z,0.30
2022-09-28T07:36:59.557Z,0.45
2022-09-28T07:39:27.377Z,0.60
2022-09-28T07:41:56.711Z,0.50
2022-09-28T07:44:29.656Z,0.60
2022-09-28T07:46:57.553Z,0.38
2022-09-28T07:49:25.339Z,0.50
2022-09-28T07:51:53.111Z,0.45
2022-09-28T07:54:20.898Z,0.50
2022-09-28T07:56:48.757Z,0.40
2022-09-28T07:59:18.654Z,0.38
2022-09-28T08:01:49.397Z,0.50
2022-09-28T08:04:17.208Z,0.70
2022-09-28T08:06:45.111Z,0.80
2022-09-28T08:09:12.862Z,0.50
2022-09-28T08:11:43.776Z,0.77
2022-09-28T08:14:11.856Z,0.40
2022-09-28T08:16:39.723Z,1.10
2022-09-28T08:19:09.009Z,0.43
2022-09-28T08:21:44.884Z,0.40
2022-09-28T08:24:13.675Z,0.68
2022-09-28T08:26:42.208Z,0.20
2022-09-28T08:29:10.514Z,0.40
2022-09-28T08:31:38.279Z,0.40
2022-09-28T08:34:06.276Z,0.30
2022-09-28T08:36:35.414Z,0.50
2022-09-28T08:39:03.271Z,0.75
2022-09-28T08:41:41.175Z,0.80
2022-09-28T08:44:23.906Z,0.30
2022-09-28T08:46:57.146Z,0.40
2022-09-28T08:49:30.012Z,0.47
2022-09-28T08:52:02.048Z,0.20
2022-09-28T08:54:37.596Z,0.30
2022-09-28T08:57:10.270Z,0.22
2022-09-28T08:59:46.425Z,0.30
2022-09-28T09:02:19.080Z,0.40
2022-09-28T09:04:47.041Z,0.60
2022-09-28T09:07:34.528Z,0.47
2022-09-28T09:10:09.990Z,0.20
2022-09-28T09:12:47.670Z,0.60
2022-09-28T09:15:29.980Z,0.38
2022-09-28T09:18:19.768Z,0.10
2022-09-28T09:20:52.927Z,0.25
2022-09-28T09:23:34.731Z,0.60
2022-09-28T09:26:10.535Z,0.57
2022-09-28T09:29:11.545Z,0.38
2022-09-28T09:39:39.244Z,0.20
2022-09-28T09:42:48.531Z,0.20
2022-09-28T09:52:31.422Z,0.30
2022-09-28T09:55:41.414Z,0.20
2022-09-28T09:58:16.685Z,0.73
2022-09-28T10:07:47.971Z,0.38
2022-09-28T10:10:45.614Z,0.60
2022-09-28T10:13:20.372Z,0.22
2022-09-28T10:16:45.571Z,0.30
2022-09-28T10:20:00.843Z,0.28
2022-09-28T10:23:06.393Z,0.20
2022-09-28T10:25:38.389Z,0.15
2022-09-28T10:29:10.628Z,0.30
2022-09-28T10:31:44.882Z,0.40
2022-09-28T10:34:31.160Z,0.20
2022-09-28T10:37:06.814Z,0.25
2022-09-28T10:43:08.460Z,0.40
2022-09-28T10:45:59.565Z,0.40
2022-09-28T10:49:46.572Z,0.20
2022-09-28T10:52:41.191Z,0.30
2022-09-28T10:55:28.131Z,0.40
2022-09-28T11:04:35.513Z,0.50
2022-09-28T11:07:26.872Z,0.80
2022-09-28T11:09:56.201Z,0.55
2022-09-28T11:15:59.590Z,0.30
2022-09-28T11:18:32.225Z,0.20
2022-09-28T11:21:33.886Z,0.20
2022-09-28T11:24:26.673Z,0.40
2022-09-28T11:27:48.446Z,0.30
2022-09-28T11:30:43.014Z,0.20
2022-09-28T11:33:56.577Z,0.32
2022-09-28T11:37:42.098Z,0.20
2022-09-28T11:55:48.269Z,0.20
2022-09-28T11:58:25.168Z,0.20
2022-09-28T12:00:58.411Z,0.20
2022-09-28T12:03:31.876Z,0.20
2022-09-28T12:06:03.253Z,0.20
2022-09-28T12:11:09.625Z,0.15
2022-09-28T12:21:23.391Z,0.30
2022-09-28T12:23:52.770Z,0.35
2022-09-28T12:26:35.921Z,0.40
2022-09-28T12:29:12.436Z,0.28
2022-09-28T12:31:49.850Z,0.40
2022-09-28T12:34:24.168Z,0.17
2022-09-28T12:37:16.529Z,0.20
2022-09-28T12:39:58.799Z,0.28
2022-09-28T12:42:47.108Z,0.20
2022-09-28T12:45:35.559Z,0.30
2022-09-28T12:48:40.743Z,0.20
2022-09-28T12:51:17.325Z,0.22
2022-09-28T12:54:01.449Z,0.30
2022-09-28T12:56:38.405Z,0.20
2022-09-28T12:59:18.080Z,0.10
2022-09-28T13:02:21.616Z,0.10
2022-09-28T13:05:13.159Z,0.15
2022-09-28T13:10:24.393Z,0.22
2022-09-28T13:13:06.833Z,0.35
2022-09-28T13:15:42.300Z,0.20
2022-09-28T13:18:18.966Z,0.28
2022-09-28T13:20:59.580Z,0.20
2022-09-28T13:23:31.006Z,0.43
2022-09-28T13:26:09.745Z,0.32
2022-09-28T13:28:38.843Z,0.30
2022-09-28T13:31:09.746Z,0.28
2022-09-28T13:33:40.424Z,0.32
2022-09-28T13:36:36.355Z,0.20
2022-09-28T13:39:04.764Z,0.20
2022-09-28T13:41:36.614Z,0.30
2022-09-28T13:44:43.195Z,0.30
2022-09-28T13:47:29.385Z,0.40
2022-09-28T13:50:13.777Z,0.10
2022-09-28T13:52:47.728Z,0.47
2022-09-28T13:55:38.751Z,0.52
2022-09-28T13:58:15.365Z,0.40
2022-09-28T14:00:48.291Z,0.30
2022-09-28T14:03:27.689Z,0.30
2022-09-28T14:06:10.989Z,0.55
2022-09-28T14:08:41.114Z,0.35
2022-09-28T14:11:41.919Z,0.20
2022-09-28T14:14:44.727Z,0.20
2022-09-28T14:17:50.012Z,0.22
2022-09-28T14:20:22.299Z,0.20
2022-09-28T14:23:06.392Z,0.40
2022-09-28T14:25:37.204Z,0.40
2022-09-28T14:28:24.336Z,0.63
2022-09-28T14:30:58.744Z,0.85
2022-09-28T14:33:29.614Z,0.60
2022-09-28T14:36:02.150Z,0.60
2022-09-28T14:38:50.446Z,0.32
2022-09-28T14:41:31.258Z,0.28
2022-09-28T14:44:09.000Z,0.30
2022-09-28T14:46:39.064Z,0.50
2022-09-28T14:49:51.219Z,0.35
2022-09-28T14:52:35.761Z,0.32
2022-09-28T14:55:03.590Z,0.50
2022-09-28T14:57:33.857Z,0.20
2022-09-28T15:00:08.607Z,0.33
2022-09-28T15:02:39.492Z,0.30
2022-09-28T15:05:16.083Z,0.20
2022-09-28T15:07:48.011Z,0.30
2022-09-28T15:10:27.295Z,0.52
2022-09-28T15:12:57.102Z,0.10
2022-09-28T15:15:32.895Z,0.45
2022-09-28T15:18:25.546Z,0.30
2022-09-28T15:20:53.405Z,0.50
2022-09-28T15:23:35.363Z,0.30
2022-09-28T15:26:07.045Z,0.65
2022-09-28T15:28:36.253Z,0.98
2022-09-28T15:31:17.533Z,0.75
2022-09-28T15:36:33.469Z,0.60
2022-09-28T15:39:06.694Z,0.32
2022-09-28T15:41:35.156Z,0.50
2022-09-28T15:44:25.292Z,0.73
2022-09-28T15:47:07.003Z,0.45
2022-09-28T15:49:41.121Z,0.50
2022-09-28T15:52:22.445Z,0.55
2022-09-28T15:57:33.171Z,0.47
2022-09-28T16:00:01.665Z,0.68
2022-09-28T16:02:30.562Z,0.50
2022-09-28T16:05:00.737Z,0.30
2022-09-28T16:07:34.910Z,0.30
2022-09-28T16:10:26.968Z,0.28
2022-09-28T16:12:57.166Z,0.47
2022-09-28T16:15:28.530Z,0.70
2022-09-28T16:18:00.516Z,0.43
2022-09-28T16:20:32.018Z,0.40
2022-09-28T16:23:05.673Z,0.17
2022-09-28T16:25:39.395Z,0.40
2022-09-28T16:28:08.940Z,0.13
2022-09-28T16:30:36.705Z,0.38
2022-09-28T16:33:06.652Z,0.30
2022-09-28T16:35:51.317Z,0.38
2022-09-28T16:38:20.666Z,0.20
2022-09-28T16:40:53.557Z,0.30
2022-09-28T16:43:26.819Z,0.38
2022-09-28T16:45:56.546Z,0.50
2022-09-28T16:48:27.398Z,0.63
2022-09-28T16:50:55.345Z,0.45
2022-09-28T16:53:41.457Z,0.60
2022-09-28T16:56:11.839Z,0.60
2022-09-28T16:58:39.877Z,0.63
2022-09-28T17:01:08.851Z,0.25
2022-09-28T17:03:36.911Z,0.77
2022-09-28T17:06:06.181Z,0.80
2022-09-28T17:08:35.440Z,0.70
2022-09-28T17:11:24.092Z,0.82
2022-09-28T17:13:58.729Z,0.85
2022-09-28T17:16:57.284Z,0.70
2022-09-28T17:21:47.325Z,1.13
2022-09-28T17:24:15.182Z,1.05
2022-09-28T17:26:44.270Z,0.90
2022-09-28T17:29:14.555Z,0.80
2022-09-28T17:31:42.802Z,0.63
2022-09-28T17:34:11.412Z,0.95
2022-09-28T17:36:41.603Z,0.90
2022-09-28T17:39:12.440Z,1.55
2022-09-28T17:41:40.794Z,1.67
2022-09-28T17:44:08.880Z,1.58
2022-09-28T17:46:39.658Z,1.60
2022-09-28T17:49:11.103Z,0.95
2022-09-28T17:51:39.206Z,0.93
2022-09-28T17:54:08.210Z,0.60
2022-09-28T17:56:37.496Z,0.88
2022-09-28T17:59:07.006Z,0.85
2022-09-28T18:01:38.861Z,0.50
2022-09-28T18:04:15.913Z,0.68
2022-09-28T18:06:55.715Z,0.50
2022-09-28T18:09:25.206Z,0.60
2022-09-28T18:12:00.458Z,0.75
2022-09-28T18:14:28.355Z,0.80
2022-09-28T18:16:56.179Z,1.00
2022-09-28T18:19:28.635Z,0.70
2022-09-28T18:21:59.650Z,0.80
2022-09-28T18:24:27.451Z,0.70
2022-09-28T18:26:55.258Z,0.50
2022-09-28T18:29:23.033Z,1.08
2022-09-28T18:31:50.806Z,1.02
2022-09-28T18:34:18.705Z,0.80
2022-09-28T18:36:48.263Z,0.68
2022-09-28T18:39:16.053Z,0.90
2022-09-28T18:41:43.847Z,1.00
2022-09-28T18:44:11.643Z,0.93
2022-09-28T18:46:40.877Z,1.15
2022-09-28T18:49:08.759Z,0.77
2022-09-28T18:51:36.611Z,0.60
2022-09-28T18:54:06.984Z,1.05
2022-09-28T18:56:37.206Z,0.98
2022-09-28T18:59:11.143Z,1.00
2022-09-28T19:01:41.900Z,1.17
2022-09-28T19:04:11.514Z,1.08
2022-09-28T19:06:41.415Z,0.70
2022-09-28T19:09:11.571Z,1.25
2022-09-28T19:11:39.425Z,0.90
2022-09-28T19:14:07.200Z,0.80
2022-09-28T19:16:34.979Z,1.20
2022-09-28T19:19:03.248Z,1.30
2022-09-28T19:21:31.750Z,1.00
2022-09-28T19:24:01.778Z,0.88
2022-09-28T19:26:32.738Z,0.70
2022-09-28T19:29:03.000Z,0.90
2022-09-28T19:31:31.878Z,0.80
2022-09-28T19:34:00.084Z,0.80
2022-09-28T19:36:29.067Z,0.70
2022-09-28T19:38:58.005Z,0.60
2022-09-28T19:41:44.411Z,0.50
2022-09-28T19:44:21.089Z,0.70
2022-09-28T19:46:49.032Z,0.60
2022-09-28T19:49:19.545Z,0.40
2022-09-28T19:52:11.640Z,0.30
2022-09-28T19:54:37.997Z,0.43
2022-09-28T19:57:07.749Z,0.30
2022-09-28T19:59:38.246Z,0.32
2022-09-28T20:02:08.323Z,0.38
2022-09-28T20:04:36.267Z,0.47
2022-09-28T20:07:04.993Z,0.47
2022-09-28T20:09:32.927Z,0.57
2022-09-28T20:12:00.932Z,0.38
2022-09-28T20:14:33.138Z,0.40
2022-09-28T20:17:10.599Z,0.50
2022-09-28T20:19:38.452Z,0.70
2022-09-28T20:22:06.318Z,0.50
2022-09-28T20:24:34.116Z,0.50
2022-09-28T20:27:02.449Z,0.57
2022-09-28T20:29:31.388Z,0.47
2022-09-28T20:31:59.278Z,0.40
2022-09-28T20:34:28.663Z,0.60
2022-09-28T20:36:56.704Z,0.30
2022-09-28T20:39:24.642Z,0.63
2022-09-28T20:41:52.420Z,0.43
2022-09-28T20:44:20.451Z,0.40
2022-09-28T20:46:50.959Z,0.50
2022-09-28T20:49:18.861Z,0.50
2022-09-28T20:51:48.021Z,0.60
2022-09-28T20:54:15.798Z,0.57
2022-09-28T20:56:43.624Z,0.70
2022-09-28T20:59:13.203Z,0.40
2022-09-28T21:01:41.614Z,0.43
2022-09-28T21:04:11.034Z,0.60
2022-09-28T21:06:40.600Z,0.30
2022-09-28T21:09:11.486Z,0.32
2022-09-28T21:11:40.241Z,0.60
2022-09-28T21:14:10.087Z,0.77
2022-09-28T21:16:39.919Z,0.50
2022-09-28T21:19:07.768Z,0.63
2022-09-28T21:21:35.630Z,0.80
2022-09-28T21:24:03.884Z,0.55
2022-09-28T21:26:33.496Z,1.15
2022-09-28T21:29:02.728Z,0.50
2022-09-28T21:31:33.404Z,0.68
2022-09-28T21:34:01.400Z,0.65
2022-09-28T21:36:29.350Z,0.77
2022-09-28T21:38:57.369Z,0.70
2022-09-28T21:41:25.839Z,0.77
2022-09-28T21:43:55.025Z,0.90
2022-09-28T21:46:22.978Z,0.65
2022-09-28T21:48:53.613Z,0.77
2022-09-28T21:51:22.448Z,0.60
2022-09-28T21:53:50.349Z,0.68
2022-09-28T21:56:18.616Z,0.80
2022-09-28T21:58:46.838Z,0.80
2022-09-28T22:01:19.445Z,0.60
2022-09-28T22:03:50.381Z,0.70
2022-09-28T22:06:19.519Z,0.70
2022-09-28T22:08:48.277Z,0.93
2022-09-28T22:11:18.362Z,0.50
2022-09-28T22:13:47.709Z,0.80
2022-09-28T22:16:18.514Z,0.60
2022-09-28T22:18:46.671Z,0.30
2022-09-28T22:21:16.590Z,0.60
2022-09-28T22:23:44.976Z,0.52
2022-09-28T22:26:17.723Z,0.60
2022-09-28T22:28:47.765Z,0.50
2022-09-28T22:31:18.291Z,0.60
2022-09-28T22:33:46.688Z,0.50
2022-09-28T22:36:16.870Z,0.50
2022-09-28T22:38:45.318Z,0.57
2022-09-28T22:41:15.732Z,0.50
2022-09-28T22:43:43.950Z,0.57
2022-09-28T22:46:13.831Z,0.70
2022-09-28T22:48:46.822Z,0.50
2022-09-28T22:51:14.788Z,0.88
2022-09-28T22:53:42.828Z,0.85
2022-09-28T22:56:14.613Z,0.52
2022-09-28T22:58:45.462Z,0.60
2022-09-28T23:01:15.237Z,1.05
2022-09-28T23:03:44.821Z,0.43
2022-09-28T23:06:14.910Z,0.95
2022-09-28T23:08:43.054Z,0.32
2022-09-28T23:11:10.876Z,0.55
2022-09-28T23:13:38.841Z,0.43
2022-09-28T23:16:08.530Z,0.30
2022-09-28T23:18:38.360Z,0.80
2022-09-28T23:21:09.273Z,0.55
2022-09-28T23:23:37.122Z,0.43
2022-09-28T23:26:11.877Z,0.88
2022-09-28T23:28:39.676Z,0.32
2022-09-28T23:31:12.291Z,0.80
2022-09-28T23:33:47.997Z,0.52
2022-09-28T23:36:17.774Z,0.65
2022-09-28T23:38:45.632Z,0.40
2022-09-28T23:41:13.536Z,0.60
2022-09-28T23:43:41.378Z,0.80
2022-09-28T23:46:09.343Z,0.82
2022-09-28T23:48:37.196Z,0.65
2022-09-28T23:51:05.313Z,0.75
2022-09-28T23:53:34.594Z,0.60
2022-09-28T23:56:03.764Z,0.68
2022-09-28T23:58:31.526Z,0.50
